Block Island, Rhode Island
Current Conditions -  °F | °C
As of 8:55 PM on Monday 20 Oct 2014 (Local Time) from KBID Reporting Station
Broken Clouds Broken Clouds  
Wind Chill: 57°   Ceiling: 3700
Heat Index: 57°   Visibility: 10mi
Dew Point: 45°   Wind: 16mph
Humidity: 63%   Direction: 230°SW
Pressure: 30.01"   Gusts: 20mph
Location:  41.17°N, 71.58°W
Report Text: KBID 210055Z AUTO 23014G17KT 10SM BKN037 14/07 A3001 RMK AO1
Loading
Personal Weather Stations






























Interactive Weather Map
Tropical Storm Tracking
New forecast layout! Learn more

10-Day Weather Forecast

Advertisements
Track Severe Weather on mobile